Aasiaat

KL  EN  DA
ASIAQ
Weather Now GREENLAND SURVEY
Updated [WGT/WGST] Temperature [°C] Wind [m/s] Air pressure [hPa] Relative humidity [%] Precipitation [mm]
Present Wind chill Speed Max
24.09 02:00-2,6-10,911,4 ⇙14,41014700,1
24.09 01:00-2,2-10,210,7 ⇙13,91015610,1
24.09 00:00-2,3-10,411,3 ⇙14,41016640,0
23.09 23:00-2,1-9,69,7 ⇙12,41017630,1
23.09 22:00-2,2-9,79,6 ⇙11,81017620,0
23.09 21:00-1,9-8,88,0 ⇙10,81018690,0
23.09 20:00-2,0-8,77,5 ⇙9,31018670,0
23.09 19:00-1,6-8,07,2 ⇙8,81018660,0
23.09 18:00-1,1-7,06,2 ⇙8,21019620,0
23.09 17:00-0,7-6,36,0 ⇙7,71019610,0
23.09 16:00-0,5-5,04,1 ⇐6,21019620,0
23.09 15:000,2-4,03,9 ⇐5,71019600,0
23.09 14:000,6-3,74,3 ⇐5,71019590,0
23.09 13:000,0-4,74,7 ⇐6,71019600,0
23.09 12:00-0,1-4,13,6 ⇐5,11019590,0
23.09 11:00-0,1-3,83,2 ⇐4,11019630,0
23.09 10:00-0,3-4,03,2 ⇐4,61019660,0
23.09 09:00-0,5-3,62,4 ⇐3,61018680,0
23.09 08:00-0,7-3,92,5 ⇐3,61018720,0
23.09 07:00-1,0-3,72,1 ⇖2,61017750,0
23.09 06:00-1,1-3,92,1 ⇖2,11017760,0
23.09 05:00-1,2-4,02,1 ⇖2,11017740,0
23.09 04:00-1,7-4,72,2 ⇖2,61016730,0
23.09 03:00-2,2-5,32,2 ⇐2,61016700,0
23.09 02:00-1,6-4,82,4 ⇙3,11016650,0
Position: (68.7166666666,-52.78333333)

[Back]